Time,TemperatureF,DewpointF,PressureIn,WindDirection,WindDirectionDegrees,WindSpeedMPH,WindSpeedGustMPH,Humidity,HourlyPrecipIn,Conditions,Clouds,dailyrainin,SoftwareType,DateUTC
2014-01-20 00:04:00,47.3,35.8,30.11,NNE,26,0.0,0.0,64,0.00,,,0.00,meteobridge,2014-01-20 08:04:00,
2014-01-20 00:09:00,46.9,35.4,30.11,NNE,26,0.0,0.0,64,0.00,,,0.00,meteobridge,2014-01-20 08:09:00,
2014-01-20 00:14:00,46.8,35.6,30.11,NNE,26,0.0,0.0,65,0.00,,,0.00,meteobridge,2014-01-20 08:14:00,
2014-01-20 00:20:00,46.8,36.0,30.11,NNE,26,0.0,0.9,66,0.00,,,0.00,meteobridge,2014-01-20 08:20:00,
2014-01-20 00:25:00,47.1,36.0,30.11,NNE,26,0.0,0.9,65,0.00,,,0.00,meteobridge,2014-01-20 08:25:00,
2014-01-20 00:30:00,47.3,35.8,30.10,NNE,26,0.0,0.0,64,0.00,,,0.00,meteobridge,2014-01-20 08:30:00,
2014-01-20 00:35:00,47.5,36.0,30.10,NNE,26,0.0,0.9,64,0.00,,,0.00,meteobridge,2014-01-20 08:35:00,
2014-01-20 00:40:00,48.2,35.8,30.10,NNE,26,0.0,0.9,62,0.00,,,0.00,meteobridge,2014-01-20 08:40:00,
2014-01-20 00:46:00,48.6,35.8,30.10,NNE,26,0.0,0.0,61,0.00,,,0.00,meteobridge,2014-01-20 08:46:00,
2014-01-20 00:51:00,48.2,36.1,30.10,NNE,26,0.0,0.0,63,0.00,,,0.00,meteobridge,2014-01-20 08:51:00,
2014-01-20 00:56:00,47.8,35.8,30.10,NNE,26,0.0,0.0,63,0.00,,,0.00,meteobridge,2014-01-20 08:56:00,
2014-01-20 01:01:00,47.8,36.3,30.10,NNE,26,0.0,0.9,64,0.00,,,0.00,meteobridge,2014-01-20 09:01:00,
2014-01-20 01:06:00,48.0,36.5,30.10,NNE,26,0.0,0.9,64,0.00,,,0.00,meteobridge,2014-01-20 09:06:00,
2014-01-20 01:11:00,48.2,36.1,30.10,NNE,26,0.0,0.9,63,0.00,,,0.00,meteobridge,2014-01-20 09:11:00,
2014-01-20 01:17:00,48.4,36.3,30.10,NNE,26,0.0,0.0,63,0.00,,,0.00,meteobridge,2014-01-20 09:17:00,
2014-01-20 01:22:00,48.2,36.1,30.10,NNE,26,0.0,0.0,63,0.00,,,0.00,meteobridge,2014-01-20 09:22:00,
2014-01-20 01:27:00,47.7,36.1,30.10,NNE,26,0.0,0.0,64,0.00,,,0.00,meteobridge,2014-01-20 09:27:00,
2014-01-20 01:32:00,46.9,35.8,30.10,NNE,26,0.0,0.0,65,0.00,,,0.00,meteobridge,2014-01-20 09:32:00,
2014-01-20 01:37:00,46.6,35.8,30.10,NNE,26,0.0,0.0,66,0.00,,,0.00,meteobridge,2014-01-20 09:37:00,
2014-01-20 01:42:00,46.0,35.8,30.10,NNE,26,0.0,0.0,67,0.00,,,0.00,meteobridge,2014-01-20 09:42:00,
2014-01-20 01:48:00,45.9,36.0,30.10,NNE,26,0.0,0.0,68,0.00,,,0.00,meteobridge,2014-01-20 09:48:00,
2014-01-20 01:53:00,46.0,36.1,30.10,NNE,26,0.0,0.0,68,0.00,,,0.00,meteobridge,2014-01-20 09:53:00,
2014-01-20 01:58:00,46.6,36.1,30.10,NNE,26,0.0,0.0,67,0.00,,,0.00,meteobridge,2014-01-20 09:58:00,
2014-01-20 02:03:00,46.8,36.3,30.10,NNE,26,0.0,0.0,67,0.00,,,0.00,meteobridge,2014-01-20 10:03:00,
2014-01-20 02:08:00,46.9,36.1,30.11,NNE,26,0.0,0.0,66,0.00,,,0.00,meteobridge,2014-01-20 10:08:00,
2014-01-20 02:13:00,46.8,36.3,30.11,NNE,26,0.0,0.9,67,0.00,,,0.00,meteobridge,2014-01-20 10:13:00,
2014-01-20 02:18:00,46.8,36.3,30.11,NNE,26,0.0,0.0,67,0.00,,,0.00,meteobridge,2014-01-20 10:18:00,
2014-01-20 02:24:00,46.6,36.1,30.11,NNE,26,0.0,0.0,67,0.00,,,0.00,meteobridge,2014-01-20 10:24:00,
2014-01-20 02:29:00,46.6,36.5,30.11,NNE,26,0.0,0.9,68,0.00,,,0.00,meteobridge,2014-01-20 10:29:00,
2014-01-20 02:34:00,46.8,36.7,30.11,NNE,26,0.0,0.0,68,0.00,,,0.00,meteobridge,2014-01-20 10:34:00,
2014-01-20 02:39:00,46.8,36.3,30.11,NNE,26,0.0,0.0,67,0.00,,,0.00,meteobridge,2014-01-20 10:39:00,
2014-01-20 02:44:00,46.0,35.8,30.11,NNE,26,0.0,0.9,67,0.00,,,0.00,meteobridge,2014-01-20 10:44:00,
2014-01-20 02:49:00,45.0,35.1,30.12,NNE,26,0.0,0.0,68,0.00,,,0.00,meteobridge,2014-01-20 10:49:00,
2014-01-20 02:55:00,43.9,34.7,30.12,NNE,26,0.0,0.0,70,0.00,,,0.00,meteobridge,2014-01-20 10:55:00,
2014-01-20 03:00:00,43.0,34.2,30.12,NNE,26,0.0,0.0,71,0.00,,,0.00,meteobridge,2014-01-20 11:00:00,
2014-01-20 03:05:00,42.4,34.0,30.12,NNE,26,0.0,0.0,72,0.00,,,0.00,meteobridge,2014-01-20 11:05:00,
2014-01-20 03:10:00,42.3,34.9,30.12,NNE,26,0.0,0.0,75,0.00,,,0.00,meteobridge,2014-01-20 11:10:00,
2014-01-20 03:15:00,42.3,35.2,30.12,NNE,26,0.0,0.0,76,0.00,,,0.00,meteobridge,2014-01-20 11:15:00,
2014-01-20 03:20:00,42.3,35.2,30.12,NNE,26,0.0,0.0,76,0.00,,,0.00,meteobridge,2014-01-20 11:20:00,
2014-01-20 03:25:00,42.6,35.6,30.12,NNE,26,0.0,0.0,76,0.00,,,0.00,meteobridge,2014-01-20 11:25:00,
2014-01-20 03:30:00,42.8,35.4,30.12,NNE,26,0.0,0.0,75,0.00,,,0.00,meteobridge,2014-01-20 11:30:00,
2014-01-20 03:35:00,43.0,35.6,30.11,NNE,26,0.0,0.0,75,0.00,,,0.00,meteobridge,2014-01-20 11:35:00,
2014-01-20 03:41:00,43.2,35.8,30.11,NNE,26,0.0,0.0,75,0.00,,,0.00,meteobridge,2014-01-20 11:41:00,
2014-01-20 03:46:00,43.0,35.6,30.11,NNE,26,0.0,0.0,75,0.00,,,0.00,meteobridge,2014-01-20 11:46:00,
2014-01-20 03:51:00,43.2,35.8,30.11,NNE,26,0.0,0.0,75,0.00,,,0.00,meteobridge,2014-01-20 11:51:00,
2014-01-20 03:56:00,43.3,35.6,30.11,NNE,26,0.0,0.0,74,0.00,,,0.00,meteobridge,2014-01-20 11:56:00,
2014-01-20 04:01:00,43.9,35.8,30.12,NNE,26,0.0,0.0,73,0.00,,,0.00,meteobridge,2014-01-20 12:01:00,
2014-01-20 04:07:00,44.2,35.8,30.12,NNE,26,0.0,0.0,72,0.00,,,0.00,meteobridge,2014-01-20 12:07:00,
2014-01-20 04:12:00,44.2,35.8,30.12,NNE,26,0.0,0.0,72,0.00,,,0.00,meteobridge,2014-01-20 12:12:00,
2014-01-20 04:17:00,44.1,35.6,30.12,NNE,26,0.0,0.0,72,0.00,,,0.00,meteobridge,2014-01-20 12:17:00,
2014-01-20 04:22:00,44.2,35.8,30.12,NNE,26,0.0,0.0,72,0.00,,,0.00,meteobridge,2014-01-20 12:22:00,
2014-01-20 04:27:00,44.4,35.6,30.12,NNE,26,0.0,0.0,71,0.00,,,0.00,meteobridge,2014-01-20 12:27:00,
2014-01-20 04:33:00,44.8,35.6,30.12,NNE,26,0.0,0.0,70,0.00,,,0.00,meteobridge,2014-01-20 12:33:00,
2014-01-20 04:38:00,44.6,35.4,30.12,NNE,26,0.0,0.0,70,0.00,,,0.00,meteobridge,2014-01-20 12:38:00,
2014-01-20 04:43:00,44.2,35.1,30.12,NNE,26,0.0,0.0,70,0.00,,,0.00,meteobridge,2014-01-20 12:43:00,
2014-01-20 04:48:00,44.1,34.9,30.12,NNE,26,0.0,0.0,70,0.00,,,0.00,meteobridge,2014-01-20 12:48:00,
2014-01-20 04:53:00,43.9,34.7,30.12,NNE,26,0.0,0.0,70,0.00,,,0.00,meteobridge,2014-01-20 12:53:00,
2014-01-20 04:58:00,43.5,34.7,30.12,NNE,26,0.0,0.0,71,0.00,,,0.00,meteobridge,2014-01-20 12:58:00,
2014-01-20 05:04:00,43.5,34.7,30.12,NNE,26,0.0,0.9,71,0.00,,,0.00,meteobridge,2014-01-20 13:04:00,
2014-01-20 05:09:00,43.5,34.7,30.12,NNE,26,0.0,0.0,71,0.00,,,0.00,meteobridge,2014-01-20 13:09:00,
2014-01-20 05:14:00,43.3,34.5,30.12,NNE,26,0.0,0.9,71,0.00,,,0.00,meteobridge,2014-01-20 13:14:00,
2014-01-20 05:19:00,43.3,34.5,30.12,NNE,26,0.0,0.0,71,0.00,,,0.00,meteobridge,2014-01-20 13:19:00,
2014-01-20 05:24:00,43.3,34.9,30.12,NNE,26,0.0,0.0,72,0.00,,,0.00,meteobridge,2014-01-20 13:24:00,
2014-01-20 05:29:00,43.5,34.7,30.12,NNE,26,0.0,0.0,71,0.00,,,0.00,meteobridge,2014-01-20 13:29:00,
2014-01-20 05:34:00,43.3,34.5,30.12,NNE,26,0.0,0.0,71,0.00,,,0.00,meteobridge,2014-01-20 13:34:00,
2014-01-20 05:39:00,43.3,34.9,30.13,NNE,26,0.0,0.9,72,0.00,,,0.00,meteobridge,2014-01-20 13:39:00,
2014-01-20 05:45:00,43.3,34.9,30.13,NNE,26,0.0,0.0,72,0.00,,,0.00,meteobridge,2014-01-20 13:45:00,
2014-01-20 05:50:00,43.9,35.1,30.13,NNE,26,0.0,0.0,71,0.00,,,0.00,meteobridge,2014-01-20 13:50:00,
2014-01-20 05:55:00,43.9,34.7,30.13,NNE,26,0.0,0.0,70,0.00,,,0.00,meteobridge,2014-01-20 13:55:00,
2014-01-20 06:00:00,43.9,34.7,30.13,NNE,26,0.0,0.0,70,0.00,,,0.00,meteobridge,2014-01-20 14:00:00,
2014-01-20 06:05:00,43.9,34.7,30.14,NNE,26,0.0,0.0,70,0.00,,,0.00,meteobridge,2014-01-20 14:05:00,
2014-01-20 06:11:00,43.7,34.5,30.14,NNE,26,0.0,0.0,70,0.00,,,0.00,meteobridge,2014-01-20 14:11:00,
2014-01-20 06:16:00,43.7,34.9,30.14,NNE,26,0.0,0.0,71,0.00,,,0.00,meteobridge,2014-01-20 14:16:00,
2014-01-20 06:21:00,43.7,34.9,30.14,NNE,26,0.0,0.0,71,0.00,,,0.00,meteobridge,2014-01-20 14:21:00,
2014-01-20 06:26:00,43.7,34.9,30.14,NNE,26,0.0,0.0,71,0.00,,,0.00,meteobridge,2014-01-20 14:26:00,
2014-01-20 06:31:00,43.9,35.1,30.14,NNE,26,0.0,0.0,71,0.00,,,0.00,meteobridge,2014-01-20 14:31:00,
2014-01-20 06:36:00,43.9,34.7,30.14,NNE,26,0.0,0.0,70,0.00,,,0.00,meteobridge,2014-01-20 14:36:00,
2014-01-20 06:42:00,43.9,34.7,30.14,NNE,26,0.0,0.0,70,0.00,,,0.00,meteobridge,2014-01-20 14:42:00,
2014-01-20 06:47:00,43.7,34.5,30.14,NNE,26,0.0,0.0,70,0.00,,,0.00,meteobridge,2014-01-20 14:47:00,
2014-01-20 06:52:00,44.2,35.1,30.14,NNE,26,0.0,0.0,70,0.00,,,0.00,meteobridge,2014-01-20 14:52:00,
2014-01-20 06:57:00,44.8,34.9,30.14,NNE,26,0.0,0.9,68,0.00,,,0.00,meteobridge,2014-01-20 14:57:00,
2014-01-20 07:02:00,44.8,34.5,30.14,NNE,26,0.0,0.0,67,0.00,,,0.00,meteobridge,2014-01-20 15:02:00,
2014-01-20 07:07:00,44.8,34.5,30.15,NNE,26,0.0,0.0,67,0.00,,,0.00,meteobridge,2014-01-20 15:07:00,
2014-01-20 07:12:00,44.8,34.9,30.14,NNE,26,0.0,0.9,68,0.00,,,0.00,meteobridge,2014-01-20 15:12:00,
2014-01-20 07:17:00,44.6,34.7,30.15,NNE,26,0.0,0.0,68,0.00,,,0.00,meteobridge,2014-01-20 15:17:00,
2014-01-20 07:22:00,44.1,34.5,30.15,NNE,26,0.0,0.0,69,0.00,,,0.00,meteobridge,2014-01-20 15:22:00,
2014-01-20 07:27:00,43.5,34.3,30.15,NNE,26,0.0,0.0,70,0.00,,,0.00,meteobridge,2014-01-20 15:27:00,
2014-01-20 07:33:00,43.5,34.7,30.15,NNE,26,0.0,0.0,71,0.00,,,0.00,meteobridge,2014-01-20 15:33:00,
2014-01-20 07:38:00,43.3,34.9,30.15,NNE,26,0.0,0.0,72,0.00,,,0.00,meteobridge,2014-01-20 15:38:00,
2014-01-20 07:43:00,43.9,35.4,30.15,NNE,26,0.0,0.0,72,0.00,,,0.00,meteobridge,2014-01-20 15:43:00,
2014-01-20 07:48:00,44.2,35.8,30.15,NNE,26,0.0,0.0,72,0.00,,,0.00,meteobridge,2014-01-20 15:48:00,
2014-01-20 07:53:00,44.4,35.6,30.15,NNE,26,0.0,0.0,71,0.00,,,0.00,meteobridge,2014-01-20 15:53:00,
2014-01-20 07:58:00,44.8,35.2,30.15,NNE,26,0.0,0.0,69,0.00,,,0.00,meteobridge,2014-01-20 15:58:00,
2014-01-20 08:04:00,45.0,35.4,30.15,NNE,26,0.0,0.0,69,0.00,,,0.00,meteobridge,2014-01-20 16:04:00,
2014-01-20 08:09:00,45.7,36.1,30.15,NNE,26,0.0,0.0,69,0.00,,,0.00,meteobridge,2014-01-20 16:09:00,
2014-01-20 08:14:00,46.9,36.9,30.15,NNE,26,0.0,0.0,68,0.00,,,0.00,meteobridge,2014-01-20 16:14:00,
2014-01-20 08:20:00,47.5,37.4,30.15,NNE,26,0.0,0.0,68,0.00,,,0.00,meteobridge,2014-01-20 16:20:00,
2014-01-20 08:25:00,47.7,37.6,30.15,NNE,25,0.0,0.0,68,0.00,,,0.00,meteobridge,2014-01-20 16:25:00,
2014-01-20 08:30:00,48.4,36.7,30.15,NNE,26,0.0,0.0,64,0.00,,,0.00,meteobridge,2014-01-20 16:30:00,
2014-01-20 08:35:00,49.8,37.8,30.15,NNE,26,0.0,0.0,63,0.00,,,0.00,meteobridge,2014-01-20 16:35:00,
2014-01-20 08:40:00,51.1,38.1,30.15,NNE,26,0.0,0.0,61,0.00,,,0.00,meteobridge,2014-01-20 16:40:00,
2014-01-20 08:46:00,52.3,38.8,30.15,NNE,26,0.0,0.0,60,0.00,,,0.00,meteobridge,2014-01-20 16:46:00,
2014-01-20 08:51:00,53.1,38.7,30.15,NNE,26,0.0,0.0,58,0.00,,,0.00,meteobridge,2014-01-20 16:51:00,
2014-01-20 08:56:00,52.7,38.3,30.16,NNE,26,0.0,0.0,58,0.00,,,0.00,meteobridge,2014-01-20 16:56:00,
2014-01-20 09:01:00,52.2,37.8,30.16,NNE,26,0.0,0.0,58,0.00,,,0.00,meteobridge,2014-01-20 17:01:00,
2014-01-20 09:06:00,52.2,37.8,30.16,NNE,26,0.0,0.0,58,0.00,,,0.00,meteobridge,2014-01-20 17:06:00,
2014-01-20 09:11:00,52.0,37.6,30.17,East,81,0.0,0.9,58,0.00,,,0.00,meteobridge,2014-01-20 17:11:00,
2014-01-20 09:17:00,52.3,37.9,30.17,East,82,0.0,0.9,58,0.00,,,0.00,meteobridge,2014-01-20 17:17:00,
2014-01-20 09:21:00,52.0,37.6,30.17,South,171,0.0,0.9,58,0.00,,,0.00,meteobridge,2014-01-20 17:21:00,
2014-01-20 09:27:00,52.3,37.9,30.17,South,171,0.0,0.0,58,0.00,,,0.00,meteobridge,2014-01-20 17:27:00,
2014-01-20 09:32:00,53.4,38.5,30.17,South,169,0.0,0.0,57,0.00,,,0.00,meteobridge,2014-01-20 17:32:00,
2014-01-20 09:37:00,54.0,38.1,30.18,South,170,0.0,0.0,55,0.00,,,0.00,meteobridge,2014-01-20 17:37:00,
2014-01-20 09:42:00,54.0,38.1,30.18,East,80,0.9,2.9,55,0.00,,,0.00,meteobridge,2014-01-20 17:42:00,
2014-01-20 09:47:00,53.8,37.9,30.18,East,80,0.0,0.0,55,0.00,,,0.00,meteobridge,2014-01-20 17:47:00,
2014-01-20 09:52:00,54.0,38.1,30.18,East,80,0.0,0.0,55,0.00,,,0.00,meteobridge,2014-01-20 17:52:00,
2014-01-20 09:57:00,54.3,37.9,30.18,East,80,0.0,0.9,54,0.00,,,0.00,meteobridge,2014-01-20 17:57:00,
2014-01-20 10:02:00,55.0,38.7,30.18,ENE,78,0.0,0.9,54,0.00,,,0.00,meteobridge,2014-01-20 18:02:00,
2014-01-20 10:07:00,56.1,38.7,30.18,ENE,78,0.0,0.0,52,0.00,,,0.00,meteobridge,2014-01-20 18:07:00,
2014-01-20 10:12:00,57.0,39.0,30.18,ENE,78,0.0,0.0,51,0.00,,,0.00,meteobridge,2014-01-20 18:12:00,
2014-01-20 10:17:00,57.7,38.7,30.18,ENE,78,0.0,0.0,49,0.00,,,0.00,meteobridge,2014-01-20 18:17:00,
2014-01-20 10:23:00,57.6,38.5,30.18,ENE,78,0.0,0.9,49,0.00,,,0.00,meteobridge,2014-01-20 18:23:00,
2014-01-20 10:28:00,57.7,38.7,30.18,ENE,78,0.0,2.0,49,0.00,,,0.00,meteobridge,2014-01-20 18:28:00,
2014-01-20 10:33:00,58.5,38.8,30.18,East,86,2.0,2.0,48,0.00,,,0.00,meteobridge,2014-01-20 18:33:00,
2014-01-20 10:38:00,58.8,38.7,30.18,East,86,0.0,0.9,47,0.00,,,0.00,meteobridge,2014-01-20 18:38:00,
2014-01-20 10:43:00,59.5,38.1,30.18,East,87,0.0,2.0,45,0.00,,,0.00,meteobridge,2014-01-20 18:43:00,
2014-01-20 10:48:00,60.8,38.7,30.18,ESE,105,2.0,2.9,44,0.00,,,0.00,meteobridge,2014-01-20 18:48:00,
2014-01-20 10:53:00,61.2,36.7,30.18,SE,138,4.0,4.9,40,0.00,,,0.00,meteobridge,2014-01-20 18:53:00,
2014-01-20 10:58:00,61.2,35.4,30.18,South,175,0.9,4.9,38,0.00,,,0.00,meteobridge,2014-01-20 18:58:00,
2014-01-20 11:04:00,62.1,36.9,30.17,ESE,113,2.9,4.0,39,0.00,,,0.00,meteobridge,2014-01-20 19:04:00,
2014-01-20 11:09:00,62.8,36.1,30.17,South,171,2.0,4.9,37,0.00,,,0.00,meteobridge,2014-01-20 19:09:00,
2014-01-20 11:14:00,63.1,36.5,30.17,SE,139,0.9,4.0,37,0.00,,,0.00,meteobridge,2014-01-20 19:14:00,
2014-01-20 11:19:00,63.3,36.0,30.17,ESE,113,2.9,4.0,36,0.00,,,0.00,meteobridge,2014-01-20 19:19:00,
2014-01-20 11:24:00,63.7,34.7,30.17,SSE,161,4.0,4.9,34,0.00,,,0.00,meteobridge,2014-01-20 19:24:00,
2014-01-20 11:29:00,63.3,35.2,30.16,SE,146,4.9,6.0,35,0.00,,,0.00,meteobridge,2014-01-20 19:29:00,
2014-01-20 11:34:00,63.3,35.2,30.16,ESE,121,0.0,2.9,35,0.00,,,0.00,meteobridge,2014-01-20 19:34:00,
2014-01-20 11:39:00,63.9,35.6,30.16,ESE,119,4.0,4.0,35,0.00,,,0.00,meteobridge,2014-01-20 19:39:00,
2014-01-20 11:44:00,64.0,35.1,30.16,SSE,150,4.0,6.0,34,0.00,,,0.00,meteobridge,2014-01-20 19:44:00,
2014-01-20 11:49:00,64.2,35.2,30.15,South,186,2.9,6.0,34,0.00,,,0.00,meteobridge,2014-01-20 19:49:00,
2014-01-20 11:54:00,64.8,34.2,30.15,SSE,160,2.9,8.9,32,0.00,,,0.00,meteobridge,2014-01-20 19:54:00,
2014-01-20 11:59:00,65.1,35.2,30.15,SSE,163,2.0,4.9,33,0.00,,,0.00,meteobridge,2014-01-20 19:59:00,
2014-01-20 12:04:00,65.5,34.9,30.15,ESE,121,2.0,4.9,32,0.00,,,0.00,meteobridge,2014-01-20 20:04:00,
2014-01-20 12:09:00,65.7,35.1,30.14,SE,140,0.9,4.9,32,0.00,,,0.00,meteobridge,2014-01-20 20:09:00,
2014-01-20 12:14:00,65.8,34.3,30.14,ESE,120,0.0,4.0,31,0.00,,,0.00,meteobridge,2014-01-20 20:14:00,
2014-01-20 12:19:00,66.0,34.5,30.14,South,169,0.0,4.0,31,0.00,,,0.00,meteobridge,2014-01-20 20:19:00,
2014-01-20 12:24:00,66.4,34.0,30.14,ESE,109,0.0,4.0,30,0.00,,,0.00,meteobridge,2014-01-20 20:24:00,
2014-01-20 12:30:00,66.7,34.3,30.14,ESE,107,0.9,2.9,30,0.00,,,0.00,meteobridge,2014-01-20 20:30:00,
2014-01-20 12:35:00,67.5,34.9,30.14,NE,53,0.0,2.9,30,0.00,,,0.00,meteobridge,2014-01-20 20:35:00,
2014-01-20 12:40:00,67.6,33.4,30.14,ESE,112,0.0,2.9,28,0.00,,,0.00,meteobridge,2014-01-20 20:40:00,
2014-01-20 12:45:00,67.8,33.4,30.13,East,98,2.9,2.9,28,0.00,,,0.00,meteobridge,2014-01-20 20:45:00,
2014-01-20 12:50:00,68.4,34.0,30.13,SE,142,0.0,0.9,28,0.00,,,0.00,meteobridge,2014-01-20 20:50:00,
2014-01-20 12:55:00,68.7,33.4,30.13,SE,141,0.0,0.9,27,0.00,,,0.00,meteobridge,2014-01-20 20:55:00,
2014-01-20 13:00:00,69.3,33.8,30.12,SSE,160,0.9,0.9,27,0.00,,,0.00,meteobridge,2014-01-20 21:00:00,
2014-01-20 13:05:00,69.4,34.0,30.12,SSW,201,0.0,0.0,27,0.00,,,0.00,meteobridge,2014-01-20 21:05:00,
2014-01-20 13:10:00,69.6,33.3,30.12,East,91,2.0,4.0,26,0.00,,,0.00,meteobridge,2014-01-20 21:10:00,
2014-01-20 13:15:00,69.4,33.1,30.12,East,88,0.0,0.9,26,0.00,,,0.00,meteobridge,2014-01-20 21:15:00,
2014-01-20 13:20:00,69.8,34.3,30.12,ESE,107,0.0,2.9,27,0.00,,,0.00,meteobridge,2014-01-20 21:20:00,
2014-01-20 13:25:00,69.6,33.3,30.11,SE,129,0.0,2.9,26,0.00,,,0.00,meteobridge,2014-01-20 21:25:00,
2014-01-20 13:30:00,69.3,32.0,30.11,SE,127,0.9,2.0,25,0.00,,,0.00,meteobridge,2014-01-20 21:30:00,
2014-01-20 13:35:00,69.4,32.0,30.11,SE,126,0.0,0.9,25,0.00,,,0.00,meteobridge,2014-01-20 21:35:00,
2014-01-20 13:40:00,70.3,32.9,30.11,South,175,0.9,2.0,25,0.00,,,0.00,meteobridge,2014-01-20 21:40:00,
2014-01-20 13:46:00,70.2,32.7,30.11,South,175,0.0,2.0,25,0.00,,,0.00,meteobridge,2014-01-20 21:46:00,
2014-01-20 13:51:00,70.9,32.4,30.11,SE,136,0.0,0.0,24,0.00,,,0.00,meteobridge,2014-01-20 21:51:00,
2014-01-20 13:56:00,71.4,31.6,30.11,SW,225,0.9,2.0,23,0.00,,,0.00,meteobridge,2014-01-20 21:56:00,
2014-01-20 14:01:00,71.6,31.8,30.11,South,188,0.9,2.0,23,0.00,,,0.00,meteobridge,2014-01-20 22:01:00,
2014-01-20 14:06:00,71.6,32.9,30.11,South,188,0.0,0.9,24,0.00,,,0.00,meteobridge,2014-01-20 22:06:00,
2014-01-20 14:12:00,71.8,33.1,30.11,South,190,0.0,0.9,24,0.00,,,0.00,meteobridge,2014-01-20 22:12:00,
2014-01-20 14:17:00,72.1,33.4,30.11,SSW,200,0.0,0.9,24,0.00,,,0.00,meteobridge,2014-01-20 22:17:00,
2014-01-20 14:22:00,72.9,35.1,30.11,NE,45,0.0,2.9,25,0.00,,,0.00,meteobridge,2014-01-20 22:22:00,
2014-01-20 14:27:00,72.7,35.8,30.11,NNW,345,0.9,4.0,26,0.00,,,0.00,meteobridge,2014-01-20 22:27:00,
2014-01-20 14:32:00,72.0,36.1,30.11,NNE,15,2.9,2.9,27,0.00,,,0.00,meteobridge,2014-01-20 22:32:00,
2014-01-20 14:37:00,71.8,36.0,30.11,NE,41,0.0,2.9,27,0.00,,,0.00,meteobridge,2014-01-20 22:37:00,
2014-01-20 14:42:00,72.3,36.5,30.11,NE,42,0.0,0.9,27,0.00,,,0.00,meteobridge,2014-01-20 22:42:00,
2014-01-20 14:47:00,72.3,35.6,30.11,NE,36,0.0,0.9,26,0.00,,,0.00,meteobridge,2014-01-20 22:47:00,
2014-01-20 14:52:00,71.8,36.0,30.11,NE,35,0.0,0.9,27,0.00,,,0.00,meteobridge,2014-01-20 22:52:00,
2014-01-20 14:57:00,71.6,35.8,30.11,ENE,59,0.0,2.0,27,0.00,,,0.00,meteobridge,2014-01-20 22:57:00,
2014-01-20 15:02:00,71.8,36.9,30.11,NE,56,0.9,4.0,28,0.00,,,0.00,meteobridge,2014-01-20 23:02:00,
2014-01-20 15:07:00,71.4,37.6,30.12,NE,42,0.0,2.0,29,0.00,,,0.00,meteobridge,2014-01-20 23:07:00,
2014-01-20 15:12:00,71.2,39.0,30.11,NE,45,2.0,4.0,31,0.00,,,0.00,meteobridge,2014-01-20 23:12:00,
2014-01-20 15:17:00,70.9,39.6,30.12,ESE,112,0.0,0.9,32,0.00,,,0.00,meteobridge,2014-01-20 23:17:00,
2014-01-20 15:22:00,70.7,39.4,30.12,East,96,0.0,0.9,32,0.00,,,0.00,meteobridge,2014-01-20 23:22:00,
2014-01-20 15:27:00,70.3,39.0,30.12,East,84,0.0,2.0,32,0.00,,,0.00,meteobridge,2014-01-20 23:27:00,
2014-01-20 15:33:00,70.0,38.8,30.12,NE,41,0.0,4.0,32,0.00,,,0.00,meteobridge,2014-01-20 23:33:00,
2014-01-20 15:38:00,70.0,37.9,30.12,ENE,69,0.0,2.9,31,0.00,,,0.00,meteobridge,2014-01-20 23:38:00,
2014-01-20 15:43:00,69.6,39.2,30.12,ENE,74,0.0,2.9,33,0.00,,,0.00,meteobridge,2014-01-20 23:43:00,
2014-01-20 15:48:00,69.4,39.0,30.12,NE,44,0.0,0.9,33,0.00,,,0.00,meteobridge,2014-01-20 23:48:00,
2014-01-20 15:53:00,69.1,39.6,30.12,NE,46,0.9,2.0,34,0.00,,,0.00,meteobridge,2014-01-20 23:53:00,
2014-01-20 15:58:00,68.7,39.9,30.13,NNE,29,0.9,0.9,35,0.00,,,0.00,meteobridge,2014-01-20 23:58:00,
2014-01-20 16:03:00,68.7,39.9,30.12,NNE,29,0.9,0.9,35,0.00,,,0.00,meteobridge,2014-01-21 00:03:00,
2014-01-20 16:08:00,68.5,39.7,30.13,NE,36,0.0,0.9,35,0.00,,,0.00,meteobridge,2014-01-21 00:08:00,
2014-01-20 16:13:00,68.4,39.6,30.12,NE,37,0.9,0.9,35,0.00,,,0.00,meteobridge,2014-01-21 00:13:00,
2014-01-20 16:18:00,67.6,39.7,30.12,ENE,64,0.0,0.9,36,0.00,,,0.00,meteobridge,2014-01-21 00:18:00,
2014-01-20 16:23:00,67.6,39.7,30.12,ENE,63,0.0,0.0,36,0.00,,,0.00,meteobridge,2014-01-21 00:23:00,
2014-01-20 16:28:00,67.5,39.6,30.12,ENE,63,0.0,0.0,36,0.00,,,0.00,meteobridge,2014-01-21 00:28:00,
2014-01-20 16:34:00,66.9,39.0,30.12,ENE,63,0.0,0.0,36,0.00,,,0.00,meteobridge,2014-01-21 00:34:00,
2014-01-20 16:39:00,66.4,39.9,30.12,ENE,63,0.0,0.0,38,0.00,,,0.00,meteobridge,2014-01-21 00:39:00,
2014-01-20 16:44:00,65.8,39.6,30.13,ENE,63,0.0,0.0,38,0.00,,,0.00,meteobridge,2014-01-21 00:44:00,
2014-01-20 16:49:00,64.8,39.9,30.13,ENE,63,0.0,0.0,40,0.00,,,0.00,meteobridge,2014-01-21 00:49:00,
2014-01-20 16:55:00,63.7,40.1,30.13,ENE,63,0.0,0.0,42,0.00,,,0.00,meteobridge,2014-01-21 00:55:00,
2014-01-20 17:00:00,62.8,39.9,30.13,ENE,63,0.0,0.0,43,0.00,,,0.00,meteobridge,2014-01-21 01:00:00,
2014-01-20 17:05:00,62.1,40.5,30.13,ENE,63,0.0,0.0,45,0.00,,,0.00,meteobridge,2014-01-21 01:05:00,
2014-01-20 17:10:00,61.3,39.7,30.13,ENE,63,0.0,0.0,45,0.00,,,0.00,meteobridge,2014-01-21 01:10:00,
2014-01-20 17:15:00,60.4,39.6,30.13,ENE,63,0.0,0.0,46,0.00,,,0.00,meteobridge,2014-01-21 01:15:00,
2014-01-20 17:21:00,60.1,39.7,30.13,ENE,63,0.0,0.0,47,0.00,,,0.00,meteobridge,2014-01-21 01:21:00,
2014-01-20 17:26:00,59.4,39.7,30.13,ENE,63,0.0,0.0,48,0.00,,,0.00,meteobridge,2014-01-21 01:26:00,
2014-01-20 17:31:00,59.0,39.4,30.13,ENE,63,0.0,0.0,48,0.00,,,0.00,meteobridge,2014-01-21 01:31:00,
2014-01-20 17:36:00,58.3,39.7,30.14,ENE,63,0.0,2.0,50,0.00,,,0.00,meteobridge,2014-01-21 01:36:00,
2014-01-20 17:41:00,57.7,39.2,30.14,ENE,63,0.0,0.0,50,0.00,,,0.00,meteobridge,2014-01-21 01:41:00,
2014-01-20 17:46:00,57.4,39.4,30.14,ENE,63,0.0,0.0,51,0.00,,,0.00,meteobridge,2014-01-21 01:46:00,
2014-01-20 17:51:00,57.0,39.0,30.14,ENE,63,0.0,0.0,51,0.00,,,0.00,meteobridge,2014-01-21 01:51:00,
2014-01-20 17:56:00,56.7,38.7,30.14,ENE,63,0.0,0.0,51,0.00,,,0.00,meteobridge,2014-01-21 01:56:00,
2014-01-20 18:02:00,56.5,38.7,30.14,ENE,63,0.0,0.0,51,0.00,,,0.00,meteobridge,2014-01-21 02:02:00,
2014-01-20 18:07:00,56.1,39.2,30.14,ENE,63,0.0,0.0,53,0.00,,,0.00,meteobridge,2014-01-21 02:07:00,
2014-01-20 18:12:00,55.9,39.0,30.14,ENE,63,0.0,0.0,53,0.00,,,0.00,meteobridge,2014-01-21 02:12:00,
2014-01-20 18:17:00,55.6,38.7,30.14,ENE,63,0.0,0.9,53,0.00,,,0.00,meteobridge,2014-01-21 02:17:00,
2014-01-20 18:22:00,55.4,38.5,30.14,ENE,63,0.0,0.9,53,0.00,,,0.00,meteobridge,2014-01-21 02:22:00,
2014-01-20 18:27:00,55.2,38.8,30.14,ENE,63,0.0,0.0,54,0.00,,,0.00,meteobridge,2014-01-21 02:27:00,
2014-01-20 18:32:00,54.9,38.5,30.15,ENE,63,0.0,0.0,54,0.00,,,0.00,meteobridge,2014-01-21 02:32:00,
2014-01-20 18:37:00,54.7,38.3,30.15,ENE,63,0.0,0.0,54,0.00,,,0.00,meteobridge,2014-01-21 02:37:00,
2014-01-20 18:43:00,54.3,38.5,30.15,ENE,63,0.0,0.0,55,0.00,,,0.00,meteobridge,2014-01-21 02:43:00,
2014-01-20 18:48:00,54.1,38.3,30.15,ENE,63,0.0,0.0,55,0.00,,,0.00,meteobridge,2014-01-21 02:48:00,
2014-01-20 18:53:00,54.0,38.7,30.15,ENE,63,0.0,0.0,56,0.00,,,0.00,meteobridge,2014-01-21 02:53:00,
2014-01-20 18:58:00,53.8,38.5,30.15,ENE,63,0.0,0.0,56,0.00,,,0.00,meteobridge,2014-01-21 02:58:00,
2014-01-20 19:03:00,53.8,37.9,30.16,ENE,63,0.0,0.0,55,0.00,,,0.00,meteobridge,2014-01-21 03:03:00,
2014-01-20 19:08:00,53.8,37.9,30.16,ENE,63,0.0,0.0,55,0.00,,,0.00,meteobridge,2014-01-21 03:08:00,
2014-01-20 19:13:00,53.8,37.9,30.16,ENE,63,0.0,0.0,55,0.00,,,0.00,meteobridge,2014-01-21 03:13:00,
2014-01-20 19:19:00,53.4,37.6,30.16,ENE,63,0.0,0.0,55,0.00,,,0.00,meteobridge,2014-01-21 03:19:00,
2014-01-20 19:24:00,53.2,37.9,30.16,ENE,63,0.0,0.0,56,0.00,,,0.00,meteobridge,2014-01-21 03:24:00,
2014-01-20 19:29:00,52.9,37.6,30.16,ENE,63,0.0,0.0,56,0.00,,,0.00,meteobridge,2014-01-21 03:29:00,
2014-01-20 19:35:00,52.9,37.6,30.16,ENE,63,0.0,0.0,56,0.00,,,0.00,meteobridge,2014-01-21 03:35:00,
2014-01-20 19:40:00,52.9,37.6,30.16,ENE,63,0.0,0.9,56,0.00,,,0.00,meteobridge,2014-01-21 03:40:00,
2014-01-20 19:42:00,52.9,37.6,30.16,ENE,63,0.0,0.0,56,0.00,,,0.00,meteobridge,2014-01-21 03:42:00,
2014-01-20 19:47:00,53.1,37.4,30.16,ENE,63,0.0,0.0,55,0.00,,,0.00,meteobridge,2014-01-21 03:47:00,
2014-01-20 19:52:00,53.1,37.4,30.16,ENE,63,0.0,0.0,55,0.00,,,0.00,meteobridge,2014-01-21 03:52:00,
2014-01-20 19:57:00,52.9,37.2,30.16,ENE,63,0.0,0.0,55,0.00,,,0.00,meteobridge,2014-01-21 03:57:00,
2014-01-20 20:03:00,52.7,37.0,30.16,ENE,63,0.0,0.0,55,0.00,,,0.00,meteobridge,2014-01-21 04:03:00,
2014-01-20 20:08:00,52.5,36.9,30.16,ENE,63,0.0,0.0,55,0.00,,,0.00,meteobridge,2014-01-21 04:08:00,
2014-01-20 20:13:00,52.3,36.7,30.17,ENE,63,0.0,0.9,55,0.00,,,0.00,meteobridge,2014-01-21 04:13:00,
2014-01-20 20:18:00,52.5,36.9,30.17,ENE,63,0.0,0.0,55,0.00,,,0.00,meteobridge,2014-01-21 04:18:00,
2014-01-20 20:23:00,52.7,36.5,30.17,ENE,63,0.0,0.0,54,0.00,,,0.00,meteobridge,2014-01-21 04:23:00,
2014-01-20 20:28:00,52.5,36.9,30.17,ENE,63,0.0,0.0,55,0.00,,,0.00,meteobridge,2014-01-21 04:28:00,
2014-01-20 20:33:00,52.3,36.7,30.17,ENE,63,0.0,0.0,55,0.00,,,0.00,meteobridge,2014-01-21 04:33:00,
2014-01-20 20:39:00,52.3,36.7,30.18,ENE,63,0.0,0.0,55,0.00,,,0.00,meteobridge,2014-01-21 04:39:00,
2014-01-20 20:44:00,52.0,36.9,30.18,ENE,63,0.0,0.0,56,0.00,,,0.00,meteobridge,2014-01-21 04:44:00,
2014-01-20 20:49:00,51.6,36.5,30.18,ENE,63,0.0,0.0,56,0.00,,,0.00,meteobridge,2014-01-21 04:49:00,
2014-01-20 20:54:00,51.6,36.5,30.18,ENE,63,0.0,0.0,56,0.00,,,0.00,meteobridge,2014-01-21 04:54:00,
2014-01-20 20:59:00,52.0,36.3,30.18,ENE,63,0.0,0.0,55,0.00,,,0.00,meteobridge,2014-01-21 04:59:00,
2014-01-20 21:01:00,52.0,36.3,30.18,ENE,63,0.0,0.0,55,0.00,,,0.00,meteobridge,2014-01-21 05:01:00,
2014-01-20 21:02:00,52.0,36.3,30.18,ENE,63,0.0,0.0,55,0.00,,,0.00,meteobridge,2014-01-21 05:02:00,
2014-01-20 21:07:00,51.6,36.5,30.19,ENE,63,0.0,0.0,56,0.00,,,0.00,meteobridge,2014-01-21 05:07:00,
2014-01-20 21:10:00,51.4,36.3,30.19,ENE,63,0.0,0.0,56,0.00,,,0.00,meteobridge,2014-01-21 05:10:00,
2014-01-20 21:15:00,51.3,36.1,30.19,ENE,63,0.0,0.0,56,0.00,,,0.00,meteobridge,2014-01-21 05:15:00,
2014-01-20 21:20:00,51.4,35.8,30.19,ENE,63,0.0,0.0,55,0.00,,,0.00,meteobridge,2014-01-21 05:20:00,
2014-01-20 21:25:00,51.4,36.3,30.19,ENE,63,0.0,0.0,56,0.00,,,0.00,meteobridge,2014-01-21 05:25:00,
2014-01-20 21:30:00,51.1,36.0,30.19,ENE,63,0.0,0.0,56,0.00,,,0.00,meteobridge,2014-01-21 05:30:00,
2014-01-20 21:35:00,50.9,36.1,30.19,ENE,63,0.0,0.0,57,0.00,,,0.00,meteobridge,2014-01-21 05:35:00,
2014-01-20 21:40:00,50.9,36.1,30.19,ENE,63,0.0,0.0,57,0.00,,,0.00,meteobridge,2014-01-21 05:40:00,
2014-01-20 21:46:00,51.1,36.3,30.20,ENE,63,0.0,0.0,57,0.00,,,0.00,meteobridge,2014-01-21 05:46:00,
2014-01-20 21:51:00,50.9,36.1,30.20,ENE,63,0.0,0.0,57,0.00,,,0.00,meteobridge,2014-01-21 05:51:00,
2014-01-20 21:56:00,50.4,35.8,30.20,ENE,63,0.0,0.0,57,0.00,,,0.00,meteobridge,2014-01-21 05:56:00,
2014-01-20 22:01:00,50.2,36.0,30.20,ENE,63,0.0,0.0,58,0.00,,,0.00,meteobridge,2014-01-21 06:01:00,
2014-01-20 22:02:00,50.2,36.0,30.20,ENE,63,0.0,0.0,58,0.00,,,0.00,meteobridge,2014-01-21 06:02:00,
2014-01-20 22:07:00,50.4,35.8,30.20,ENE,63,0.0,0.0,57,0.00,,,0.00,meteobridge,2014-01-21 06:07:00,
2014-01-20 22:08:00,50.4,35.8,30.20,ENE,63,0.0,0.0,57,0.00,,,0.00,meteobridge,2014-01-21 06:08:00,
2014-01-20 22:13:00,50.4,35.2,30.20,ENE,63,0.0,0.9,56,0.00,,,0.00,meteobridge,2014-01-21 06:13:00,
2014-01-20 22:19:00,51.3,35.2,30.20,ENE,63,0.0,0.9,54,0.00,,,0.00,meteobridge,2014-01-21 06:19:00,
2014-01-20 22:24:00,51.1,35.4,30.20,ENE,63,0.0,0.0,55,0.00,,,0.00,meteobridge,2014-01-21 06:24:00,
2014-01-20 22:29:00,50.5,35.4,30.20,ENE,63,0.0,0.0,56,0.00,,,0.00,meteobridge,2014-01-21 06:29:00,
2014-01-20 22:34:00,49.8,35.2,30.21,ENE,63,0.0,0.0,57,0.00,,,0.00,meteobridge,2014-01-21 06:34:00,
2014-01-20 22:39:00,49.6,35.1,30.21,ENE,63,0.0,0.9,57,0.00,,,0.00,meteobridge,2014-01-21 06:39:00,
2014-01-20 22:44:00,49.8,35.2,30.21,ENE,63,0.0,0.0,57,0.00,,,0.00,meteobridge,2014-01-21 06:44:00,
2014-01-20 22:49:00,49.5,35.2,30.21,ENE,63,0.0,0.0,58,0.00,,,0.00,meteobridge,2014-01-21 06:49:00,
2014-01-20 22:55:00,49.3,35.1,30.21,ENE,63,0.0,0.0,58,0.00,,,0.00,meteobridge,2014-01-21 06:55:00,
2014-01-20 23:00:00,49.3,34.7,30.21,ENE,63,0.0,0.0,57,0.00,,,0.00,meteobridge,2014-01-21 07:00:00,
2014-01-20 23:05:00,49.3,35.1,30.21,ENE,63,0.0,0.0,58,0.00,,,0.00,meteobridge,2014-01-21 07:05:00,
2014-01-20 23:10:00,49.3,35.1,30.21,ENE,63,0.0,0.0,58,0.00,,,0.00,meteobridge,2014-01-21 07:10:00,
2014-01-20 23:15:00,49.1,34.9,30.21,ENE,63,0.0,0.0,58,0.00,,,0.00,meteobridge,2014-01-21 07:15:00,
2014-01-20 23:20:00,48.9,34.9,30.21,ENE,63,0.0,0.0,58,0.00,,,0.00,meteobridge,2014-01-21 07:20:00,
2014-01-20 23:26:00,48.9,34.9,30.21,ENE,63,0.0,0.0,58,0.00,,,0.00,meteobridge,2014-01-21 07:26:00,
2014-01-20 23:31:00,48.4,35.1,30.21,ENE,63,0.0,0.0,60,0.00,,,0.00,meteobridge,2014-01-21 07:31:00,
2014-01-20 23:36:00,47.8,35.1,30.21,ENE,63,0.0,0.0,61,0.00,,,0.00,meteobridge,2014-01-21 07:36:00,
2014-01-20 23:41:00,48.0,34.9,30.21,ENE,63,0.0,0.0,60,0.00,,,0.00,meteobridge,2014-01-21 07:41:00,
2014-01-20 23:46:00,47.8,34.7,30.21,ENE,63,0.0,0.0,60,0.00,,,0.00,meteobridge,2014-01-21 07:46:00,
2014-01-20 23:51:00,48.0,34.9,30.21,ENE,63,0.0,0.0,60,0.00,,,0.00,meteobridge,2014-01-21 07:51:00,
2014-01-20 23:56:00,48.2,34.9,30.21,ENE,63,0.0,0.0,60,0.00,,,0.00,meteobridge,2014-01-21 07:56:00,